Time;durP1;ratioP1;P1;durP2;ratioP2;P2;SDS_P1;SDS_P2;PMS_P1;PMS_P2;Temp;Humidity;BMP_temperature;BMP_pressure;BME280_temperature;BME280_humidity;BME280_pressure;Samples;Min_cycle;Max_cycle;Signal;HPM_P1;HPM_P2
2023/02/03 00:00:21;;;;;;;0.35;0.35;;;;;;;;;;4956025;29;20103;-92
2023/02/03 00:02:47;;;;;;;1.25;1.25;;;;;;;;;;4955751;29;20059;-92
2023/02/03 00:05:14;;;;;;;0.47;0.47;;;;;;;;;;4955774;29;20051;-93
2023/02/03 00:07:43;;;;;;;0.73;0.73;;;;;;;;;;4955651;29;20043;-94
2023/02/03 00:10:11;;;;;;;0.65;0.60;;;;;;;;;;4952714;29;20134;-94
2023/02/03 00:12:38;;;;;;;0.93;0.93;;;;;;;;;;4955311;29;20062;-93
2023/02/03 00:15:04;;;;;;;0.55;0.55;;;;;;;;;;4955276;29;20056;-93
2023/02/03 00:17:31;;;;;;;0.93;0.93;;;;;;;;;;4955600;29;20055;-93
2023/02/03 00:19:58;;;;;;;0.80;0.80;;;;;;;;;;4955372;29;20047;-93
2023/02/03 00:22:24;;;;;;;1.65;1.60;;;;;;;;;;4956060;28;20062;-93
2023/02/03 00:24:51;;;;;;;0.80;0.80;;;;;;;;;;4916887;28;1218528;-94
2023/02/03 00:27:19;;;;;;;0.43;0.43;;;;;;;;;;4951057;29;20485;-94
2023/02/03 00:29:45;;;;;;;0.95;0.95;;;;;;;;;;4960562;29;20425;-94
2023/02/03 00:32:12;;;;;;;2.95;1.55;;;;;;;;;;4960164;29;20413;-94
2023/02/03 00:34:38;;;;;;;0.98;0.98;;;;;;;;;;4961181;29;20043;-94
2023/02/03 00:37:05;;;;;;;0.50;0.50;;;;;;;;;;4960053;29;20055;-94
2023/02/03 00:39:31;;;;;;;2.03;1.92;;;;;;;;;;4960335;29;20477;-94
2023/02/03 00:41:58;;;;;;;1.20;1.17;;;;;;;;;;4960192;29;20084;-93
2023/02/03 00:44:26;;;;;;;1.27;1.20;;;;;;;;;;4942180;29;20122;-93
2023/02/03 00:46:52;;;;;;;0.88;0.88;;;;;;;;;;4948357;29;20055;-93
2023/02/03 00:49:19;;;;;;;2.78;1.15;;;;;;;;;;4968115;29;20402;-94
2023/02/03 00:51:46;;;;;;;1.60;1.50;;;;;;;;;;4970556;29;20051;-94
2023/02/03 00:54:12;;;;;;;1.33;1.27;;;;;;;;;;4970293;29;20051;-94
2023/02/03 00:56:39;;;;;;;0.90;0.90;;;;;;;;;;4968713;29;20047;-94
2023/02/03 00:59:05;;;;;;;0.85;0.82;;;;;;;;;;4967562;29;20043;-95
2023/02/03 01:01:33;;;;;;;1.45;1.35;;;;;;;;;;4959730;29;20051;-95
2023/02/03 01:04:00;;;;;;;0.43;0.43;;;;;;;;;;4946575;29;20056;-95
2023/02/03 01:06:26;;;;;;;1.25;1.20;;;;;;;;;;4946693;29;20056;-95
2023/02/03 01:08:53;;;;;;;1.48;1.38;;;;;;;;;;4946589;29;20078;-95
2023/02/03 01:11:21;;;;;;;0.95;0.95;;;;;;;;;;4946821;29;20098;-96
2023/02/03 01:13:47;;;;;;;0.73;0.73;;;;;;;;;;4946123;29;20062;-96
2023/02/03 01:16:15;;;;;;;1.02;1.02;;;;;;;;;;4944808;29;20081;-94
2023/02/03 01:18:43;;;;;;;1.25;1.25;;;;;;;;;;4962399;29;20062;-94
2023/02/03 01:21:11;;;;;;;0.70;0.70;;;;;;;;;;4961137;29;20051;-94
2023/02/03 01:23:38;;;;;;;0.77;0.77;;;;;;;;;;4959468;29;20420;-95
2023/02/03 01:26:05;;;;;;;0.57;0.52;;;;;;;;;;4958862;28;20469;-95
2023/02/03 01:28:32;;;;;;;0.60;0.57;;;;;;;;;;4958910;29;20051;-94
2023/02/03 01:31:08;;;;;;;0.95;0.95;;;;;;;;;;4958968;29;20051;-94
2023/02/03 01:33:34;;;;;;;1.52;1.50;;;;;;;;;;4959046;28;20059;-93
2023/02/03 01:36:03;;;;;;;1.23;0.65;;;;;;;;;;4950787;29;20108;-95
2023/02/03 01:38:29;;;;;;;0.70;0.70;;;;;;;;;;4939721;29;20106;-94
2023/02/03 01:40:56;;;;;;;1.23;1.23;;;;;;;;;;4939557;29;20417;-94
2023/02/03 01:43:29;;;;;;;0.95;0.95;;;;;;;;;;4938900;29;20493;-93
2023/02/03 01:45:56;;;;;;;1.63;1.52;;;;;;;;;;4938999;29;20134;-93
2023/02/03 01:48:23;;;;;;;0.80;0.70;;;;;;;;;;4938898;29;20047;-93
2023/02/03 01:50:49;;;;;;;0.40;0.40;;;;;;;;;;4938989;29;20461;-93
2023/02/03 01:53:18;;;;;;;1.77;1.65;;;;;;;;;;4953878;29;20087;-93
2023/02/03 01:55:46;;;;;;;1.67;1.60;;;;;;;;;;4958267;29;20047;-93
2023/02/03 01:58:16;;;;;;;0.35;0.35;;;;;;;;;;4958626;29;20055;-93
2023/02/03 02:00:43;;;;;;;1.08;1.08;;;;;;;;;;4958347;29;20047;-93
2023/02/03 02:03:10;;;;;;;1.55;1.45;;;;;;;;;;4958399;29;20110;-93
2023/02/03 02:05:38;;;;;;;0.57;0.57;;;;;;;;;;4959684;29;20055;-92
2023/02/03 02:08:06;;;;;;;1.35;1.25;;;;;;;;;;4958061;29;20410;-92
2023/02/03 02:10:34;;;;;;;0.52;0.52;;;;;;;;;;4957254;29;20043;-92
2023/02/03 02:13:01;;;;;;;1.33;1.13;;;;;;;;;;4957516;29;20054;-92
2023/02/03 02:15:32;;;;;;;0.47;0.47;;;;;;;;;;4957385;29;20094;-92
2023/02/03 02:18:04;;;;;;;0.70;0.70;;;;;;;;;;4957678;29;20501;-92
2023/02/03 02:20:46;;;;;;;1.20;1.10;;;;;;;;;;4957841;29;20054;-91
2023/02/03 02:23:33;;;;;;;0.50;0.50;;;;;;;;;;4955833;29;20051;-92
2023/02/03 02:26:29;;;;;;;0.52;0.52;;;;;;;;;;4952504;28;20058;-92
2023/02/03 02:29:12;;;;;;;1.08;1.08;;;;;;;;;;4880003;29;20049;-92
2023/02/03 02:31:51;;;;;;;0.75;0.75;;;;;;;;;;4880681;29;20468;-93
2023/02/03 02:34:22;;;;;;;0.68;0.68;;;;;;;;;;4879743;29;20069;-92
2023/02/03 02:36:53;;;;;;;0.60;0.60;;;;;;;;;;4880116;29;20097;-93
2023/02/03 02:39:23;;;;;;;0.80;0.80;;;;;;;;;;4880023;29;20060;-94
2023/02/03 02:41:54;;;;;;;1.45;1.38;;;;;;;;;;4880611;29;20052;-93
2023/02/03 02:44:23;;;;;;;0.80;0.80;;;;;;;;;;4879862;29;20464;-94
2023/02/03 02:46:53;;;;;;;0.60;0.60;;;;;;;;;;4879568;29;20057;-93
2023/02/03 02:49:21;;;;;;;1.70;1.60;;;;;;;;;;4879599;29;20053;-94
2023/02/03 02:51:48;;;;;;;0.65;0.65;;;;;;;;;;4879879;29;20102;-93
2023/02/03 02:54:16;;;;;;;1.75;1.08;;;;;;;;;;4879701;29;20132;-94
2023/02/03 02:56:44;;;;;;;0.93;0.80;;;;;;;;;;4879810;29;20049;-93
2023/02/03 02:59:11;;;;;;;0.47;0.47;;;;;;;;;;4880022;29;20464;-93
2023/02/03 03:01:40;;;;;;;0.77;0.75;;;;;;;;;;4878907;29;20539;-92
2023/02/03 03:04:10;;;;;;;0.85;0.85;;;;;;;;;;4950408;29;20078;-93
2023/02/03 03:06:40;;;;;;;1.00;1.00;;;;;;;;;;4957383;29;20050;-92
2023/02/03 03:09:08;;;;;;;1.23;1.13;;;;;;;;;;4956948;29;20418;-93
2023/02/03 03:11:38;;;;;;;1.67;1.58;;;;;;;;;;4957494;29;20058;-92
2023/02/03 03:14:06;;;;;;;0.80;0.80;;;;;;;;;;4956892;29;20047;-92
2023/02/03 03:16:34;;;;;;;0.90;0.90;;;;;;;;;;4956781;29;20062;-92
2023/02/03 03:19:02;;;;;;;1.77;1.67;;;;;;;;;;4956501;29;20047;-92
2023/02/03 03:21:32;;;;;;;1.02;1.00;;;;;;;;;;4956700;29;20058;-93
2023/02/03 03:24:01;;;;;;;1.95;1.85;;;;;;;;;;4956721;29;20118;-93
2023/02/03 03:26:30;;;;;;;1.83;1.73;;;;;;;;;;4957087;28;20059;-94
2023/02/03 03:29:00;;;;;;;0.75;0.75;;;;;;;;;;4956628;29;20485;-93
2023/02/03 03:31:27;;;;;;;0.93;0.93;;;;;;;;;;4957148;29;20565;-94
2023/02/03 03:33:54;;;;;;;0.93;0.93;;;;;;;;;;4957003;29;20043;-94
2023/02/03 03:36:24;;;;;;;0.90;0.90;;;;;;;;;;4956200;29;20055;-94
2023/02/03 03:38:54;;;;;;;0.60;0.60;;;;;;;;;;4956819;29;20059;-92
2023/02/03 03:41:36;;;;;;;0.73;0.73;;;;;;;;;;4956399;29;20062;-92
2023/02/03 03:44:04;;;;;;;1.13;1.05;;;;;;;;;;4956554;29;20054;-92
2023/02/03 03:46:33;;;;;;;0.30;0.30;;;;;;;;;;4956587;29;20124;-92
2023/02/03 03:49:02;;;;;;;1.52;1.42;;;;;;;;;;4956154;29;20055;-92
2023/02/03 03:51:31;;;;;;;1.80;1.52;;;;;;;;;;4956242;29;20055;-92
2023/02/03 03:54:01;;;;;;;1.77;1.67;;;;;;;;;;4957241;29;20051;-93
2023/02/03 03:56:29;;;;;;;0.95;0.95;;;;;;;;;;4970630;28;20058;-93
2023/02/03 03:58:57;;;;;;;1.00;1.00;;;;;;;;;;4959836;29;20047;-93
2023/02/03 04:01:24;;;;;;;0.82;0.82;;;;;;;;;;4960803;29;20058;-93
2023/02/03 04:03:52;;;;;;;1.13;0.88;;;;;;;;;;4960062;29;20497;-93
2023/02/03 04:06:19;;;;;;;1.50;1.40;;;;;;;;;;5426406;23;20035;-93
2023/02/03 04:08:45;;;;;;;0.57;0.57;;;;;;;;;;4996093;28;20038;-93
2023/02/03 04:11:59;;;;;;;1.05;0.70;;;;;;;;;;4999087;28;20100;-93
2023/02/03 04:14:00;;;;;;;1.70;1.60;;;;;;;;;;4999237;28;20046;-93
2023/02/03 04:16:27;;;;;;;1.85;1.75;;;;;;;;;;4999308;28;20058;-93
2023/02/03 04:18:53;;;;;;;0.75;0.75;;;;;;;;;;4999815;28;20047;-93
2023/02/03 04:21:20;;;;;;;0.75;0.75;;;;;;;;;;4999176;28;20636;-94
2023/02/03 04:23:46;;;;;;;0.57;0.57;;;;;;;;;;4998805;28;20054;-95
2023/02/03 04:26:14;;;;;;;1.27;1.23;;;;;;;;;;4998678;28;20050;-94
2023/02/03 04:28:41;;;;;;;1.27;0.95;;;;;;;;;;4999305;28;20050;-94
2023/02/03 04:31:07;;;;;;;0.88;0.85;;;;;;;;;;4999072;28;20482;-93
2023/02/03 04:33:34;;;;;;;1.13;1.02;;;;;;;;;;4998333;28;20050;-92
2023/02/03 04:36:00;;;;;;;1.15;1.00;;;;;;;;;;4999221;28;20050;-94
2023/02/03 04:38:27;;;;;;;0.57;0.57;;;;;;;;;;4998939;28;20054;-94
2023/02/03 04:40:53;;;;;;;0.50;0.50;;;;;;;;;;4998758;28;20058;-94
2023/02/03 04:43:21;;;;;;;2.00;1.05;;;;;;;;;;4998528;28;20054;-94
2023/02/03 04:45:48;;;;;;;0.98;0.95;;;;;;;;;;4998930;28;20070;-94
2023/02/03 04:48:15;;;;;;;1.45;1.35;;;;;;;;;;4998544;28;20050;-93
2023/02/03 04:50:41;;;;;;;0.93;0.93;;;;;;;;;;4998133;28;20488;-93
2023/02/03 04:53:08;;;;;;;1.30;1.13;;;;;;;;;;4997567;28;20058;-93
2023/02/03 04:55:34;;;;;;;0.98;0.93;;;;;;;;;;5010255;28;20054;-93
2023/02/03 04:58:01;;;;;;;1.20;1.20;;;;;;;;;;5010115;28;20050;-93
2023/02/03 05:00:29;;;;;;;1.77;1.67;;;;;;;;;;4997710;28;20054;-93
2023/02/03 05:02:55;;;;;;;1.38;1.25;;;;;;;;;;4997769;28;20693;-93
2023/02/03 05:05:22;;;;;;;2.42;1.80;;;;;;;;;;4998305;28;20047;-93
2023/02/03 05:07:48;;;;;;;0.68;0.68;;;;;;;;;;5025076;28;20056;-92
2023/02/03 05:10:15;;;;;;;2.08;1.98;;;;;;;;;;5037028;28;20045;-92
2023/02/03 05:12:42;;;;;;;0.47;0.47;;;;;;;;;;5037215;28;20049;-91
2023/02/03 05:15:09;;;;;;;0.70;0.70;;;;;;;;;;5024970;28;20140;-92
2023/02/03 05:17:38;;;;;;;0.50;0.50;;;;;;;;;;5017463;28;20046;-92
2023/02/03 05:20:06;;;;;;;0.60;0.60;;;;;;;;;;5016968;28;20062;-93
2023/02/03 05:22:34;;;;;;;3.45;2.08;;;;;;;;;;5018513;28;20050;-90
2023/02/03 05:25:00;;;;;;;0.98;0.98;;;;;;;;;;5016777;28;20058;-92
2023/02/03 05:27:27;;;;;;;2.00;1.90;;;;;;;;;;5025303;28;20050;-90
2023/02/03 05:29:53;;;;;;;2.60;2.40;;;;;;;;;;5017092;28;20053;-92
2023/02/03 05:32:20;;;;;;;2.10;1.95;;;;;;;;;;5014736;28;20053;-91
2023/02/03 05:34:48;;;;;;;1.05;1.02;;;;;;;;;;5015042;28;20042;-91
2023/02/03 05:37:14;;;;;;;1.10;1.10;;;;;;;;;;5015903;28;20057;-91
2023/02/03 05:39:41;;;;;;;0.88;0.88;;;;;;;;;;4996875;28;20046;-91
2023/02/03 05:42:06;;;;;;;2.05;1.88;;;;;;;;;;4997662;28;20054;-90
2023/02/03 05:44:33;;;;;;;0.65;0.65;;;;;;;;;;4997237;28;20121;-91
2023/02/03 05:46:59;;;;;;;1.23;1.13;;;;;;;;;;4996488;28;20427;-91
2023/02/03 05:49:26;;;;;;;1.63;1.52;;;;;;;;;;4996763;28;20503;-90
2023/02/03 05:51:54;;;;;;;1.08;1.08;;;;;;;;;;4997107;28;20053;-91
2023/02/03 05:54:21;;;;;;;0.55;0.55;;;;;;;;;;5003393;28;20069;-91
2023/02/03 05:56:47;;;;;;;5.50;2.60;;;;;;;;;;5015819;28;20058;-88
2023/02/03 05:59:14;;;;;;;1.45;1.35;;;;;;;;;;5015703;28;20045;-88
2023/02/03 06:01:41;;;;;;;2.63;1.58;;;;;;;;;;5014952;28;20526;-87
2023/02/03 06:04:07;;;;;;;0.60;0.60;;;;;;;;;;5015297;28;20057;-87
2023/02/03 06:06:34;;;;;;;1.27;0.85;;;;;;;;;;5011217;28;20054;-88
2023/02/03 06:09:02;;;;;;;1.02;1.02;;;;;;;;;;4995828;28;20050;-87
2023/02/03 06:11:29;;;;;;;1.42;1.33;;;;;;;;;;4995105;28;20061;-88
2023/02/03 06:13:57;;;;;;;0.70;0.65;;;;;;;;;;4995732;28;20057;-88
2023/02/03 06:16:24;;;;;;;1.00;0.95;;;;;;;;;;4996325;28;20050;-87
2023/02/03 06:18:50;;;;;;;1.02;1.02;;;;;;;;;;4996895;28;20057;-88
2023/02/03 06:21:17;;;;;;;0.68;0.68;;;;;;;;;;5008997;28;20050;-88
2023/02/03 06:23:43;;;;;;;1.52;1.42;;;;;;;;;;5006363;28;20050;-88
2023/02/03 06:26:11;;;;;;;0.88;0.88;;;;;;;;;;4990735;28;20501;-88
2023/02/03 06:28:38;;;;;;;0.68;0.55;;;;;;;;;;4990959;28;20659;-88
2023/02/03 06:31:04;;;;;;;0.85;0.85;;;;;;;;;;4994950;28;20108;-88
2023/02/03 06:33:31;;;;;;;1.17;1.17;;;;;;;;;;4995330;28;20046;-88
2023/02/03 06:35:58;;;;;;;1.45;1.35;;;;;;;;;;4995421;28;20057;-88
2023/02/03 06:38:24;;;;;;;0.80;0.80;;;;;;;;;;4995042;28;20112;-87
2023/02/03 06:40:51;;;;;;;1.17;1.08;;;;;;;;;;4993378;28;20038;-87
2023/02/03 06:43:19;;;;;;;1.77;1.67;;;;;;;;;;4994471;28;20152;-87
2023/02/03 06:45:46;;;;;;;0.95;0.95;;;;;;;;;;4993357;28;20046;-87
2023/02/03 06:48:12;;;;;;;1.17;1.08;;;;;;;;;;4993851;28;20142;-87
2023/02/03 06:50:39;;;;;;;1.40;1.30;;;;;;;;;;5000671;28;20057;-87
2023/02/03 06:53:05;;;;;;;0.70;0.68;;;;;;;;;;5014268;28;20053;-87
2023/02/03 06:55:32;;;;;;;2.05;1.95;;;;;;;;;;5007729;28;20054;-87
2023/02/03 06:57:58;;;;;;;2.67;1.00;;;;;;;;;;4994723;28;20073;-87
2023/02/03 07:00:26;;;;;;;1.33;1.23;;;;;;;;;;4999092;28;20049;-87
2023/02/03 07:02:54;;;;;;;1.77;1.67;;;;;;;;;;5000075;28;20054;-87
2023/02/03 07:05:20;;;;;;;3.20;1.70;;;;;;;;;;4994089;28;20093;-87
2023/02/03 07:07:47;;;;;;;1.08;0.98;;;;;;;;;;5020861;28;20485;-87
2023/02/03 07:10:13;;;;;;;1.77;1.67;;;;;;;;;;5028141;28;20045;-87
2023/02/03 07:12:40;;;;;;;2.25;2.15;;;;;;;;;;4994126;28;20050;-88
2023/02/03 07:15:07;;;;;;;1.25;1.13;;;;;;;;;;4995390;28;20050;-88
2023/02/03 07:17:34;;;;;;;1.45;1.35;;;;;;;;;;5012631;28;20135;-87
2023/02/03 07:20:01;;;;;;;3.47;3.28;;;;;;;;;;4995214;28;20054;-87
2023/02/03 07:22:28;;;;;;;2.67;2.47;;;;;;;;;;5013399;28;20050;-86
2023/02/03 07:24:54;;;;;;;3.38;2.28;;;;;;;;;;5013476;28;20050;-88
2023/02/03 07:27:21;;;;;;;2.83;2.63;;;;;;;;;;5013935;28;20057;-86
2023/02/03 07:29:47;;;;;;;2.20;2.10;;;;;;;;;;5013466;28;20049;-88
2023/02/03 07:32:14;;;;;;;2.83;2.65;;;;;;;;;;5013731;28;20057;-87
2023/02/03 07:34:42;;;;;;;9.75;5.40;;;;;;;;;;5007928;28;20057;-87
2023/02/03 07:37:08;;;;;;;3.83;3.47;;;;;;;;;;5010137;28;20053;-88
2023/02/03 07:39:35;;;;;;;4.40;3.97;;;;;;;;;;5013661;28;20046;-88
2023/02/03 07:42:01;;;;;;;5.40;5.00;;;;;;;;;;5013721;28;20373;-86
2023/02/03 07:44:28;;;;;;;5.00;2.63;;;;;;;;;;5012704;28;20100;-86
2023/02/03 07:46:54;;;;;;;1.98;1.67;;;;;;;;;;5012994;28;20107;-87
2023/02/03 07:49:21;;;;;;;2.15;1.05;;;;;;;;;;5008056;28;20054;-86
2023/02/03 07:51:49;;;;;;;2.30;2.20;;;;;;;;;;5006124;28;20046;-87
2023/02/03 07:54:15;;;;;;;1.38;1.27;;;;;;;;;;5012988;28;20060;-87
2023/02/03 07:56:42;;;;;;;1.60;1.45;;;;;;;;;;5013011;28;20053;-86
2023/02/03 07:59:09;;;;;;;1.27;1.17;;;;;;;;;;5013876;28;20108;-87
2023/02/03 08:01:35;;;;;;;3.92;3.13;;;;;;;;;;5013542;28;20087;-92
2023/02/03 08:04:04;;;;;;;1.55;1.48;;;;;;;;;;5017142;28;20076;-92
2023/02/03 08:06:30;;;;;;;1.30;1.23;;;;;;;;;;5004686;28;20058;-92
2023/02/03 08:08:58;;;;;;;3.28;1.88;;;;;;;;;;4994814;28;20057;-92
2023/02/03 08:11:25;;;;;;;0.90;0.90;;;;;;;;;;4994719;28;20058;-92
2023/02/03 08:13:51;;;;;;;1.65;1.55;;;;;;;;;;4994965;28;20047;-92
2023/02/03 08:16:18;;;;;;;3.08;2.88;;;;;;;;;;4994486;28;20061;-92
2023/02/03 08:18:44;;;;;;;3.03;2.80;;;;;;;;;;4994806;28;20404;-89
2023/02/03 08:21:11;;;;;;;2.33;2.22;;;;;;;;;;4993465;28;20202;-89
2023/02/03 08:23:38;;;;;;;2.03;1.90;;;;;;;;;;4992716;28;20054;-89
2023/02/03 08:26:06;;;;;;;2.50;1.88;;;;;;;;;;4993266;28;20057;-89
2023/02/03 08:28:32;;;;;;;2.75;2.55;;;;;;;;;;4993741;28;20046;-89
2023/02/03 08:30:59;;;;;;;20.00;2.63;;;;;;;;;;4990801;28;20113;-89
2023/02/03 08:33:26;;;;;;;2.97;2.78;;;;;;;;;;4993992;28;20050;-89
2023/02/03 08:35:53;;;;;;;3.40;3.20;;;;;;;;;;4996830;28;20050;-89
2023/02/03 08:38:20;;;;;;;3.75;1.80;;;;;;;;;;5013438;28;20050;-88
2023/02/03 08:40:47;;;;;;;1.58;1.48;;;;;;;;;;5004988;28;20077;-88
2023/02/03 08:43:15;;;;;;;1.70;1.60;;;;;;;;;;4993497;28;20046;-89
2023/02/03 08:45:41;;;;;;;1.67;1.58;;;;;;;;;;4993581;28;20058;-89
2023/02/03 08:48:08;;;;;;;1.83;1.73;;;;;;;;;;4977775;28;20137;-90
2023/02/03 08:50:34;;;;;;;1.20;1.17;;;;;;;;;;4994415;28;20112;-89
2023/02/03 08:53:01;;;;;;;1.17;1.17;;;;;;;;;;4997099;28;20054;-89
2023/02/03 08:55:27;;;;;;;0.60;0.60;;;;;;;;;;4997250;28;20058;-92
2023/02/03 08:57:54;;;;;;;1.25;1.23;;;;;;;;;;4995046;28;20133;-91
2023/02/03 09:00:23;;;;;;;0.88;0.82;;;;;;;;;;4988906;28;20519;-91
2023/02/03 09:02:49;;;;;;;3.45;3.25;;;;;;;;;;4997751;28;20054;-92
2023/02/03 09:05:17;;;;;;;0.75;0.75;;;;;;;;;;4998972;28;20057;-91
2023/02/03 09:07:43;;;;;;;1.33;1.33;;;;;;;;;;5010809;28;20057;-91
2023/02/03 09:10:10;;;;;;;10.43;9.60;;;;;;;;;;5017570;28;20388;-94
2023/02/03 09:12:37;;;;;;;5.22;2.20;;;;;;;;;;5032458;28;20056;-87
2023/02/03 09:15:04;;;;;;;0.75;0.75;;;;;;;;;;5035770;28;20151;-88
2023/02/03 09:17:32;;;;;;;3.35;3.15;;;;;;;;;;5035770;28;20481;-88
2023/02/03 09:19:58;;;;;;;1.20;1.17;;;;;;;;;;5035477;28;20045;-90
2023/02/03 09:22:25;;;;;;;0.95;0.95;;;;;;;;;;5028744;28;20101;-89
2023/02/03 09:24:52;;;;;;;0.65;0.65;;;;;;;;;;5016832;28;20053;-88
2023/02/03 09:27:19;;;;;;;0.55;0.55;;;;;;;;;;5016902;28;20079;-88
2023/02/03 09:29:45;;;;;;;0.80;0.80;;;;;;;;;;5016928;28;20057;-88
2023/02/03 09:32:12;;;;;;;0.60;0.60;;;;;;;;;;5018119;28;20100;-88
2023/02/03 09:34:40;;;;;;;1.40;1.30;;;;;;;;;;5017717;28;20104;-88
2023/02/03 09:37:07;;;;;;;0.65;0.65;;;;;;;;;;5015168;28;20876;-89
2023/02/03 09:39:33;;;;;;;1.33;1.23;;;;;;;;;;5016453;28;20064;-88
2023/02/03 09:42:08;;;;;;;0.60;0.60;;;;;;;;;;5018549;28;20127;-92
2023/02/03 09:44:38;;;;;;;0.80;0.80;;;;;;;;;;5001981;28;20051;-93
2023/02/03 09:47:10;;;;;;;6.88;2.42;;;;;;;;;;5000324;28;20412;-92
2023/02/03 09:49:38;;;;;;;0.93;0.88;;;;;;;;;;4997434;28;20058;-92
2023/02/03 09:52:10;;;;;;;0.73;0.73;;;;;;;;;;4996766;28;20042;-92
2023/02/03 09:54:38;;;;;;;1.15;1.15;;;;;;;;;;4996463;28;20050;-92
2023/02/03 09:57:06;;;;;;;1.33;1.23;;;;;;;;;;5013948;28;20045;-93
2023/02/03 09:59:34;;;;;;;0.90;0.90;;;;;;;;;;5036951;28;20125;-92
2023/02/03 10:02:08;;;;;;;0.55;0.55;;;;;;;;;;5037323;28;20061;-93
2023/02/03 10:04:38;;;;;;;4.47;1.85;;;;;;;;;;5019839;28;20050;-92
2023/02/03 10:07:10;;;;;;;1.88;1.50;;;;;;;;;;5016743;28;20054;-92
2023/02/03 10:09:44;;;;;;;1.10;1.00;;;;;;;;;;5018376;28;20085;-93
2023/02/03 10:12:29;;;;;;;0.82;0.82;;;;;;;;;;5017465;28;20392;-93
2023/02/03 10:15:02;;;;;;;0.25;0.22;;;;;;;;;;5010203;28;20042;-92
2023/02/03 10:17:30;;;;;;;4.03;3.78;;;;;;;;;;5016745;28;20066;-92
2023/02/03 10:20:00;;;;;;;2.25;2.15;;;;;;;;;;5015738;28;20631;-91
2023/02/03 10:22:29;;;;;;;1.23;1.23;;;;;;;;;;5015739;28;20392;-94
2023/02/03 10:25:00;;;;;;;0.63;0.63;;;;;;;;;;5016019;28;20506;-93
2023/02/03 10:27:27;;;;;;;0.73;0.47;;;;;;;;;;5015549;28;20049;-93
2023/02/03 10:29:56;;;;;;;0.80;0.80;;;;;;;;;;5015542;28;20053;-92
2023/02/03 10:32:24;;;;;;;1.13;1.13;;;;;;;;;;5015688;28;20054;-94
2023/02/03 10:34:51;;;;;;;1.55;1.45;;;;;;;;;;5016467;28;20050;-92
2023/02/03 10:37:22;;;;;;;1.45;1.38;;;;;;;;;;5017496;28;20057;-93
2023/02/03 10:39:51;;;;;;;0.88;0.88;;;;;;;;;;5014621;28;20404;-90
2023/02/03 10:42:17;;;;;;;1.05;1.00;;;;;;;;;;5015349;28;20042;-86
2023/02/03 10:44:46;;;;;;;0.77;0.77;;;;;;;;;;5014240;28;20046;-89
2023/02/03 10:47:33;;;;;;;0.93;0.80;;;;;;;;;;5022251;28;20049;-90
2023/02/03 10:50:03;;;;;;;0.95;0.95;;;;;;;;;;5035718;28;20065;-90
2023/02/03 10:52:30;;;;;;;0.50;0.50;;;;;;;;;;5035372;28;20056;-90
2023/02/03 10:54:59;;;;;;;0.60;0.60;;;;;;;;;;5028580;28;20046;-90
2023/02/03 10:57:27;;;;;;;1.00;0.90;;;;;;;;;;5014056;28;20096;-90
2023/02/03 11:00:04;;;;;;;1.35;1.25;;;;;;;;;;5014810;28;20045;-88
2023/02/03 11:02:30;;;;;;;2.88;2.78;;;;;;;;;;5014657;28;20482;-90
2023/02/03 11:05:11;;;;;;;0.95;0.93;;;;;;;;;;5015481;28;20046;-90
2023/02/03 11:07:37;;;;;;;0.85;0.85;;;;;;;;;;5013533;28;20403;-90
2023/02/03 11:10:17;;;;;;;1.13;1.13;;;;;;;;;;5027656;28;20049;-88
2023/02/03 11:12:44;;;;;;;1.83;1.65;;;;;;;;;;5022403;28;20453;-87
2023/02/03 11:15:14;;;;;;;4.45;4.00;;;;;;;;;;5015126;28;20108;-89
2023/02/03 11:17:43;;;;;;;1.15;1.08;;;;;;;;;;4999944;28;20050;-88
2023/02/03 11:20:13;;;;;;;0.73;0.73;;;;;;;;;;5015323;28;20050;-88
2023/02/03 11:22:42;;;;;;;0.93;0.93;;;;;;;;;;5015602;28;20053;-90
2023/02/03 11:25:17;;;;;;;1.80;1.13;;;;;;;;;;5016265;28;20050;-89
2023/02/03 11:27:45;;;;;;;1.45;1.35;;;;;;;;;;5019994;28;20083;-89
2023/02/03 11:30:15;;;;;;;1.00;1.00;;;;;;;;;;5011950;28;20046;-90
2023/02/03 11:32:42;;;;;;;1.10;1.08;;;;;;;;;;5020463;28;20069;-87
2023/02/03 11:35:14;;;;;;;0.90;0.90;;;;;;;;;;5022449;28;20503;-89
2023/02/03 11:37:42;;;;;;;1.75;1.65;;;;;;;;;;5027134;28;20045;-87
2023/02/03 11:40:27;;;;;;;1.00;1.00;;;;;;;;;;5033824;28;20049;-87
2023/02/03 11:43:01;;;;;;;1.67;1.58;;;;;;;;;;5033634;28;20049;-89
2023/02/03 11:45:28;;;;;;;1.17;1.17;;;;;;;;;;5045139;28;20053;-88
2023/02/03 11:47:56;;;;;;;1.77;1.67;;;;;;;;;;5031889;28;20158;-88
2023/02/03 11:50:27;;;;;;;1.65;1.55;;;;;;;;;;5025357;28;20054;-88
2023/02/03 11:52:58;;;;;;;0.77;0.77;;;;;;;;;;5014766;28;20050;-90
2023/02/03 11:55:33;;;;;;;2.85;2.65;;;;;;;;;;5014546;28;20096;-89
2023/02/03 11:58:14;;;;;;;0.93;0.93;;;;;;;;;;5014034;28;20050;-89
2023/02/03 12:00:47;;;;;;;1.48;1.45;;;;;;;;;;4971592;28;20046;-91
2023/02/03 12:03:28;;;;;;;0.93;0.93;;;;;;;;;;5015287;28;20055;-89
2023/02/03 12:06:05;;;;;;;1.15;1.15;;;;;;;;;;5015221;28;20057;-91
2023/02/03 12:08:37;;;;;;;1.13;1.05;;;;;;;;;;5016761;28;20058;-91
2023/02/03 12:11:10;;;;;;;1.10;1.10;;;;;;;;;;5017065;28;20053;-92
2023/02/03 12:13:48;;;;;;;2.03;1.92;;;;;;;;;;5016123;28;20054;-92
2023/02/03 12:16:14;;;;;;;;;;;;;;;;;;5018768;28;20108;-91
2023/02/03 12:18:45;;;;;;;3.03;1.45;;;;;;;;;;5032756;28;20019;-90
2023/02/03 12:21:26;;;;;;;1.38;1.33;;;;;;;;;;5032400;28;20133;-91
2023/02/03 12:23:56;;;;;;;0.60;0.60;;;;;;;;;;5020392;28;20112;-92
2023/02/03 12:26:25;;;;;;;2.85;2.65;;;;;;;;;;5020226;28;20058;-89
2023/02/03 12:28:55;;;;;;;1.02;0.98;;;;;;;;;;5019236;28;20054;-89
2023/02/03 12:31:28;;;;;;;1.23;1.13;;;;;;;;;;5018957;28;20113;-91
2023/02/03 12:33:58;;;;;;;0.98;0.98;;;;;;;;;;5018744;28;20081;-91
2023/02/03 12:36:27;;;;;;;1.65;1.45;;;;;;;;;;5019014;28;20049;-90
2023/02/03 12:38:56;;;;;;;1.73;1.63;;;;;;;;;;5018691;28;20137;-89
2023/02/03 12:41:26;;;;;;;1.20;1.10;;;;;;;;;;5018062;28;20104;-90
2023/02/03 12:43:56;;;;;;;1.05;1.00;;;;;;;;;;5018144;28;20089;-91
2023/02/03 12:46:25;;;;;;;0.60;0.60;;;;;;;;;;5018696;28;20054;-90
2023/02/03 12:48:54;;;;;;;1.58;1.38;;;;;;;;;;5019002;28;20058;-90
2023/02/03 12:51:26;;;;;;;0.77;0.77;;;;;;;;;;5018133;28;20372;-91
2023/02/03 12:53:55;;;;;;;2.15;2.05;;;;;;;;;;5019984;28;20458;-89
2023/02/03 12:56:25;;;;;;;1.55;1.48;;;;;;;;;;5015755;28;20082;-90
2023/02/03 12:58:56;;;;;;;0.85;0.85;;;;;;;;;;4999092;28;20137;-91
2023/02/03 13:01:24;;;;;;;1.88;1.77;;;;;;;;;;4999748;28;20073;-90
2023/02/03 13:03:55;;;;;;;2.28;2.17;;;;;;;;;;5002286;28;20050;-92
2023/02/03 13:06:25;;;;;;;1.63;1.50;;;;;;;;;;5005822;28;20085;-92
2023/02/03 13:08:56;;;;;;;1.35;1.30;;;;;;;;;;5025905;28;20105;-92
2023/02/03 13:11:28;;;;;;;2.03;1.63;;;;;;;;;;5029274;28;20074;-92
2023/02/03 13:13:56;;;;;;;1.50;1.40;;;;;;;;;;5028358;28;20064;-92
2023/02/03 13:16:25;;;;;;;1.05;1.05;;;;;;;;;;5019064;28;20050;-92
2023/02/03 13:18:54;;;;;;;1.33;1.33;;;;;;;;;;5020981;28;20050;-92
2023/02/03 13:21:22;;;;;;;1.67;1.58;;;;;;;;;;5021309;28;20503;-92
2023/02/03 13:23:50;;;;;;;1.40;1.30;;;;;;;;;;5016453;28;20054;-88
2023/02/03 13:26:31;;;;;;;0.93;0.93;;;;;;;;;;5006070;28;20055;-92
2023/02/03 13:29:06;;;;;;;1.17;1.08;;;;;;;;;;5001749;28;20050;-94
2023/02/03 13:31:40;;;;;;;1.48;1.20;;;;;;;;;;5009937;28;20061;-93
2023/02/03 13:34:12;;;;;;;1.88;0.75;;;;;;;;;;5028217;28;20053;-94
2023/02/03 13:36:44;;;;;;;5.22;2.28;;;;;;;;;;5036033;28;20053;-92
2023/02/03 13:39:29;;;;;;;1.73;1.63;;;;;;;;;;5038221;28;20446;-94
2023/02/03 13:41:56;;;;;;;0.90;0.90;;;;;;;;;;5043548;28;20049;-94
2023/02/03 13:44:27;;;;;;;1.75;1.65;;;;;;;;;;5019579;28;20090;-93
2023/02/03 13:46:54;;;;;;;1.92;1.83;;;;;;;;;;5019071;28;20385;-95
2023/02/03 13:49:24;;;;;;;1.85;1.75;;;;;;;;;;5015975;28;20507;-94
2023/02/03 13:51:50;;;;;;;1.20;1.20;;;;;;;;;;5018675;28;20053;-94
2023/02/03 13:54:21;;;;;;;0.98;0.98;;;;;;;;;;5020006;28;20050;-94
2023/02/03 13:56:53;;;;;;;1.70;1.60;;;;;;;;;;5018608;28;20046;-94
2023/02/03 13:59:30;;;;;;;2.65;1.23;;;;;;;;;;5018419;28;20054;-94
2023/02/03 14:02:29;;;;;;;1.70;1.60;;;;;;;;;;5017993;28;20060;-94
2023/02/03 14:05:00;;;;;;;1.13;1.13;;;;;;;;;;5017630;28;20057;-94
2023/02/03 14:07:30;;;;;;;2.15;2.05;;;;;;;;;;5018909;28;20080;-94
2023/02/03 14:10:13;;;;;;;1.38;1.23;;;;;;;;;;5020179;28;20128;-93
2023/02/03 14:12:54;;;;;;;0.55;0.55;;;;;;;;;;5024393;28;20045;-94
2023/02/03 14:15:23;;;;;;;2.40;2.30;;;;;;;;;;5022326;28;20049;-95
2023/02/03 14:18:06;;;;;;;1.35;1.25;;;;;;;;;;5019287;28;20138;-93
2023/02/03 14:20:37;;;;;;;1.58;1.48;;;;;;;;;;5018699;28;20061;-94
2023/02/03 14:23:08;;;;;;;2.72;2.53;;;;;;;;;;5021971;28;20046;-94
2023/02/03 14:25:34;;;;;;;;;;;;;;;;;;5025824;28;20412;-94
2023/02/03 14:28:02;;;;;;;1.13;1.13;;;;;;;;;;5021124;28;19928;-94
2023/02/03 14:30:30;;;;;;;1.15;0.70;;;;;;;;;;5019375;28;20046;-94
2023/02/03 14:32:58;;;;;;;2.08;1.98;;;;;;;;;;5018621;28;20495;-94
2023/02/03 14:35:29;;;;;;;2.85;1.58;;;;;;;;;;5017615;28;20054;-94
2023/02/03 14:37:57;;;;;;;1.83;1.73;;;;;;;;;;5017985;28;20108;-94
2023/02/03 14:40:29;;;;;;;1.48;1.38;;;;;;;;;;5018641;28;20097;-94
2023/02/03 14:43:22;;;;;;;1.17;1.15;;;;;;;;;;5018667;28;20058;-94
2023/02/03 14:46:03;;;;;;;0.73;0.73;;;;;;;;;;4999951;28;20388;-94
2023/02/03 14:48:44;;;;;;;1.90;1.80;;;;;;;;;;4997288;28;20092;-93
2023/02/03 14:51:16;;;;;;;0.85;0.85;;;;;;;;;;4993948;28;20065;-93
2023/02/03 14:53:54;;;;;;;1.15;1.15;;;;;;;;;;4998445;28;20053;-94